createdAt,value
2023-05-13T00:00:17.910Z,7.88
2023-05-13T00:02:44.736Z,8.30
2023-05-13T00:05:11.533Z,8.27
2023-05-13T00:07:38.217Z,8.32
2023-05-13T00:10:05.032Z,7.80
2023-05-13T00:12:31.587Z,8.00
2023-05-13T00:14:58.209Z,8.13
2023-05-13T00:17:25.016Z,8.13
2023-05-13T00:19:51.737Z,7.63
2023-05-13T00:22:18.354Z,7.88
2023-05-13T00:24:44.885Z,7.38
2023-05-13T00:27:11.602Z,6.60
2023-05-13T00:29:38.185Z,7.03
2023-05-13T00:32:05.150Z,7.00
2023-05-13T00:34:31.780Z,7.13
2023-05-13T00:36:58.366Z,6.72
2023-05-13T00:39:24.964Z,7.50
2023-05-13T00:41:51.530Z,6.97
2023-05-13T00:44:18.131Z,7.45
2023-05-13T00:46:44.991Z,7.43
2023-05-13T00:49:11.699Z,7.22
2023-05-13T00:51:39.235Z,7.28
2023-05-13T00:54:05.880Z,7.07
2023-05-13T00:56:32.524Z,7.13
2023-05-13T00:58:59.114Z,7.25
2023-05-13T01:01:37.935Z,7.25
2023-05-13T01:04:31.107Z,6.80
2023-05-13T01:07:28.197Z,7.20
2023-05-13T01:10:03.639Z,7.78
2023-05-13T01:12:33.823Z,7.53
2023-05-13T01:15:10.331Z,7.40
2023-05-13T01:18:00.455Z,7.75
2023-05-13T01:20:28.411Z,7.53
2023-05-13T01:22:56.630Z,7.10
2023-05-13T01:25:25.650Z,7.28
2023-05-13T01:27:53.393Z,6.80
2023-05-13T01:30:20.746Z,7.20
2023-05-13T01:32:48.568Z,7.70
2023-05-13T01:35:16.113Z,7.32
2023-05-13T01:37:43.545Z,7.57
2023-05-13T01:40:24.179Z,6.57
2023-05-13T01:42:57.465Z,7.03
2023-05-13T01:45:24.193Z,7.60
2023-05-13T01:47:50.800Z,7.13
2023-05-13T01:50:17.360Z,7.10
2023-05-13T01:52:44.061Z,6.97
2023-05-13T01:55:11.440Z,6.90
2023-05-13T01:57:38.148Z,7.18
2023-05-13T02:00:06.233Z,6.88
2023-05-13T02:02:32.816Z,6.63
2023-05-13T02:04:59.505Z,6.88
2023-05-13T02:07:26.065Z,6.82
2023-05-13T02:09:59.583Z,6.88
2023-05-13T02:12:27.050Z,6.22
2023-05-13T02:14:54.631Z,6.82
2023-05-13T02:17:22.552Z,6.60
2023-05-13T02:19:49.613Z,6.75
2023-05-13T02:22:16.578Z,7.07
2023-05-13T02:24:43.324Z,6.82
2023-05-13T02:27:12.624Z,6.82
2023-05-13T02:29:39.330Z,6.50
2023-05-13T02:32:06.385Z,6.35
2023-05-13T02:34:33.142Z,6.38
2023-05-13T02:36:59.759Z,6.47
2023-05-13T02:39:26.891Z,6.35
2023-05-13T02:41:53.525Z,7.13
2023-05-13T02:44:20.100Z,6.10
2023-05-13T02:46:46.633Z,6.60
2023-05-13T02:49:14.152Z,5.88
2023-05-13T02:51:40.864Z,6.05
2023-05-13T02:54:07.561Z,6.10
2023-05-13T02:56:34.104Z,5.75
2023-05-13T02:59:00.922Z,5.63
2023-05-13T03:01:27.619Z,5.88
2023-05-13T03:03:54.274Z,5.72
2023-05-13T03:06:20.852Z,5.90
2023-05-13T03:08:47.405Z,6.13
2023-05-13T03:11:13.948Z,6.10
2023-05-13T03:13:40.627Z,5.25
2023-05-13T03:16:07.256Z,5.13
2023-05-13T03:18:36.033Z,5.95
2023-05-13T03:21:03.044Z,5.05
2023-05-13T03:23:29.650Z,5.70
2023-05-13T03:25:56.272Z,5.70
2023-05-13T03:28:22.824Z,5.43
2023-05-13T03:30:49.394Z,5.82
2023-05-13T03:33:15.927Z,5.20
2023-05-13T03:35:42.477Z,5.35
2023-05-13T03:38:09.292Z,5.75
2023-05-13T03:40:35.803Z,6.03
2023-05-13T03:43:02.437Z,5.45
2023-05-13T03:45:29.006Z,5.65
2023-05-13T03:47:55.554Z,5.60
2023-05-13T03:50:22.345Z,6.03
2023-05-13T03:52:49.035Z,6.70
2023-05-13T03:55:15.721Z,5.88
2023-05-13T03:57:49.255Z,6.20
2023-05-13T04:00:16.174Z,7.15
2023-05-13T04:02:42.892Z,6.30
2023-05-13T04:05:09.841Z,7.65
2023-05-13T04:07:36.470Z,7.38
2023-05-13T04:10:03.188Z,6.15
2023-05-13T04:12:30.976Z,6.53
2023-05-13T04:14:57.634Z,7.40
2023-05-13T04:17:24.607Z,7.55
2023-05-13T04:19:54.969Z,7.07
2023-05-13T04:22:21.962Z,6.72
2023-05-13T04:24:51.968Z,6.45
2023-05-13T04:27:18.735Z,7.18
2023-05-13T04:29:45.363Z,7.30
2023-05-13T04:32:16.074Z,6.95
2023-05-13T04:34:42.865Z,6.97
2023-05-13T04:37:09.481Z,6.90
2023-05-13T04:39:36.056Z,7.00
2023-05-13T04:42:02.621Z,7.10
2023-05-13T04:44:29.188Z,7.00
2023-05-13T04:46:55.826Z,6.95
2023-05-13T04:49:22.439Z,6.82
2023-05-13T04:51:49.409Z,7.05
2023-05-13T04:54:16.606Z,6.78
2023-05-13T04:56:43.199Z,7.43
2023-05-13T04:59:10.004Z,7.45
2023-05-13T05:01:36.643Z,7.13
2023-05-13T05:04:03.267Z,6.22
2023-05-13T05:06:29.943Z,6.50
2023-05-13T05:08:57.145Z,6.60
2023-05-13T05:11:23.898Z,6.05
2023-05-13T05:13:50.619Z,5.72
2023-05-13T05:16:17.463Z,6.20
2023-05-13T05:18:44.129Z,6.20
2023-05-13T05:21:10.853Z,5.07
2023-05-13T05:23:37.487Z,5.72
2023-05-13T05:26:11.608Z,5.93
2023-05-13T05:28:40.300Z,5.95
2023-05-13T05:31:07.049Z,5.25
2023-05-13T05:33:33.778Z,5.68
2023-05-13T05:36:00.338Z,5.38
2023-05-13T05:38:27.077Z,5.38
2023-05-13T05:40:54.010Z,6.43
2023-05-13T05:43:20.719Z,5.90
2023-05-13T05:45:47.414Z,5.18
2023-05-13T05:48:14.212Z,6.00
2023-05-13T05:50:41.296Z,6.20
2023-05-13T05:53:07.888Z,5.43
2023-05-13T05:55:34.571Z,5.63
2023-05-13T05:58:05.466Z,5.97
2023-05-13T06:00:33.348Z,5.35
2023-05-13T06:03:00.282Z,5.68
2023-05-13T06:05:27.395Z,6.15
2023-05-13T06:07:53.973Z,5.38
2023-05-13T06:10:20.923Z,5.88
2023-05-13T06:12:47.845Z,5.90
2023-05-13T06:15:14.583Z,5.65
2023-05-13T06:17:41.381Z,5.75
2023-05-13T06:20:08.441Z,5.75
2023-05-13T06:22:35.018Z,5.75
2023-05-13T06:25:01.750Z,6.20
2023-05-13T06:27:28.386Z,5.75
2023-05-13T06:29:54.987Z,6.18
2023-05-13T06:32:21.631Z,6.25
2023-05-13T06:34:48.515Z,5.97
2023-05-13T06:37:15.491Z,5.60
2023-05-13T06:39:42.095Z,5.53
2023-05-13T06:42:08.755Z,6.00
2023-05-13T06:44:35.414Z,6.18
2023-05-13T06:47:03.052Z,6.03
2023-05-13T06:49:29.751Z,5.65
2023-05-13T06:51:56.887Z,6.22
2023-05-13T06:54:23.605Z,6.38
2023-05-13T06:56:50.142Z,5.80
2023-05-13T06:59:16.748Z,6.38
2023-05-13T07:01:43.386Z,5.90
2023-05-13T07:04:10.269Z,6.32
2023-05-13T07:06:37.154Z,6.50
2023-05-13T07:09:08.214Z,6.32
2023-05-13T07:11:38.502Z,5.90
2023-05-13T07:14:05.024Z,6.07
2023-05-13T07:16:31.802Z,6.07
2023-05-13T07:18:58.536Z,6.25
2023-05-13T07:21:25.785Z,6.32
2023-05-13T07:23:52.449Z,6.50
2023-05-13T07:26:19.031Z,6.57
2023-05-13T07:28:45.655Z,6.35
2023-05-13T07:31:12.537Z,6.32
2023-05-13T07:33:39.292Z,6.18
2023-05-13T07:36:06.511Z,6.20
2023-05-13T07:38:33.068Z,5.80
2023-05-13T07:41:00.022Z,6.15
2023-05-13T07:43:28.033Z,6.10
2023-05-13T07:45:55.707Z,5.85
2023-05-13T07:48:24.588Z,5.78
2023-05-13T07:50:51.184Z,5.45
2023-05-13T07:53:19.618Z,5.85
2023-05-13T07:55:46.775Z,5.85
2023-05-13T07:58:13.364Z,5.97
2023-05-13T08:00:40.017Z,6.28
2023-05-13T08:03:06.884Z,5.97
2023-05-13T08:05:33.553Z,5.82
2023-05-13T08:08:00.158Z,6.03
2023-05-13T08:10:26.826Z,5.70
2023-05-13T08:12:57.897Z,5.78
2023-05-13T08:15:25.009Z,5.65
2023-05-13T08:17:53.783Z,5.82
2023-05-13T08:20:23.083Z,5.90
2023-05-13T08:22:49.749Z,5.40
2023-05-13T08:25:16.588Z,5.50
2023-05-13T08:27:44.263Z,5.32
2023-05-13T08:30:11.226Z,4.95
2023-05-13T08:32:37.874Z,5.20
2023-05-13T08:35:04.749Z,5.53
2023-05-13T08:37:31.282Z,6.03
2023-05-13T08:40:00.043Z,5.97
2023-05-13T08:42:32.798Z,5.88
2023-05-13T08:45:03.962Z,6.13
2023-05-13T08:47:40.607Z,5.30
2023-05-13T08:50:07.681Z,5.60
2023-05-13T08:52:34.286Z,5.65
2023-05-13T08:55:01.757Z,5.25
2023-05-13T08:57:28.381Z,5.63
2023-05-13T08:59:54.999Z,6.15
2023-05-13T09:02:22.770Z,5.10
2023-05-13T09:04:53.600Z,5.30
2023-05-13T09:07:20.324Z,4.80
2023-05-13T09:09:47.314Z,4.97
2023-05-13T09:12:43.799Z,4.45
2023-05-13T09:15:19.259Z,5.50
2023-05-13T09:17:50.215Z,5.20
2023-05-13T09:20:18.314Z,4.88
2023-05-13T09:22:49.968Z,5.50
2023-05-13T09:25:18.282Z,4.80
2023-05-13T09:27:48.161Z,5.13
2023-05-13T09:30:15.500Z,4.78
2023-05-13T09:32:43.022Z,4.90
2023-05-13T09:35:18.314Z,4.55
2023-05-13T09:37:49.136Z,5.50
2023-05-13T09:40:17.234Z,4.72
2023-05-13T09:42:46.064Z,4.70
2023-05-13T09:45:14.194Z,4.88
2023-05-13T09:47:42.053Z,4.95
2023-05-13T09:50:11.645Z,4.65
2023-05-13T09:52:39.074Z,5.18
2023-05-13T09:55:09.869Z,5.30
2023-05-13T09:57:38.058Z,4.75
2023-05-13T10:00:17.888Z,4.80
2023-05-13T10:02:52.217Z,5.20
2023-05-13T10:05:19.170Z,4.47
2023-05-13T10:07:46.381Z,4.53
2023-05-13T10:10:13.133Z,4.47
2023-05-13T10:12:41.819Z,4.90
2023-05-13T10:15:08.968Z,4.68
2023-05-13T10:17:36.178Z,4.43
2023-05-13T10:20:05.136Z,3.35
2023-05-13T10:22:34.657Z,4.80
2023-05-13T10:25:04.000Z,4.30
2023-05-13T10:27:32.969Z,4.80
2023-05-13T10:30:03.549Z,4.47
2023-05-13T10:32:31.603Z,4.22
2023-05-13T10:35:08.402Z,4.05
2023-05-13T10:37:59.343Z,4.30
2023-05-13T10:40:35.731Z,5.03
2023-05-13T10:43:18.103Z,4.03
2023-05-13T10:45:51.371Z,4.03
2023-05-13T10:48:18.896Z,4.75
2023-05-13T10:50:57.346Z,4.22
2023-05-13T10:53:27.896Z,4.30
2023-05-13T10:55:59.694Z,3.88
2023-05-13T10:58:35.145Z,3.40
2023-05-13T11:01:16.986Z,3.25
2023-05-13T11:03:55.191Z,4.15
2023-05-13T11:06:24.011Z,3.30
2023-05-13T11:08:55.685Z,3.70
2023-05-13T11:11:22.744Z,3.67
2023-05-13T11:13:52.928Z,3.65
2023-05-13T11:16:20.568Z,3.72
2023-05-13T11:18:47.523Z,3.22
2023-05-13T11:21:14.211Z,3.30
2023-05-13T11:23:56.273Z,3.63
2023-05-13T11:26:23.090Z,3.35
2023-05-13T11:29:03.580Z,2.95
2023-05-13T11:31:53.129Z,2.95
2023-05-13T11:34:20.469Z,3.22
2023-05-13T11:36:54.346Z,3.10
2023-05-13T11:39:22.686Z,2.63
2023-05-13T11:41:51.249Z,2.70
2023-05-13T11:44:23.092Z,2.67
2023-05-13T11:46:57.892Z,2.90
2023-05-13T11:49:33.557Z,3.03
2023-05-13T11:52:06.629Z,3.05
2023-05-13T11:57:23.809Z,2.97
2023-05-13T12:00:00.596Z,2.65
2023-05-13T12:02:30.559Z,2.83
2023-05-13T12:05:05.875Z,2.58
2023-05-13T12:07:33.624Z,2.85
2023-05-13T12:10:02.124Z,3.15
2023-05-13T12:12:32.739Z,2.97
2023-05-13T12:15:02.274Z,3.00
2023-05-13T12:17:30.538Z,3.40
2023-05-13T12:20:14.829Z,2.83
2023-05-13T12:22:44.723Z,2.35
2023-05-13T12:25:33.300Z,2.50
2023-05-13T12:28:15.270Z,2.47
2023-05-13T12:31:03.363Z,2.92
2023-05-13T12:33:32.792Z,2.80
2023-05-13T12:36:20.410Z,2.33
2023-05-13T12:39:09.223Z,2.78
2023-05-13T12:41:42.540Z,2.40
2023-05-13T12:44:10.353Z,2.45
2023-05-13T12:46:37.848Z,2.30
2023-05-13T12:49:06.075Z,2.70
2023-05-13T12:51:35.619Z,2.58
2023-05-13T12:54:02.303Z,2.50
2023-05-13T12:56:28.920Z,2.30
2023-05-13T12:58:55.908Z,2.28
2023-05-13T13:01:22.907Z,2.30
2023-05-13T13:03:49.953Z,2.60
2023-05-13T13:06:18.671Z,2.40
2023-05-13T13:08:45.812Z,2.33
2023-05-13T13:11:18.553Z,3.08
2023-05-13T13:13:46.555Z,2.95
2023-05-13T13:16:13.424Z,2.47
2023-05-13T13:18:40.984Z,2.70
2023-05-13T13:21:07.970Z,2.40
2023-05-13T13:23:35.088Z,2.50
2023-05-13T13:26:02.046Z,3.03
2023-05-13T13:28:29.250Z,2.45
2023-05-13T13:30:56.078Z,2.92
2023-05-13T13:33:23.379Z,3.17
2023-05-13T13:35:50.238Z,2.88
2023-05-13T13:38:16.956Z,2.50
2023-05-13T13:40:43.670Z,2.45
2023-05-13T13:43:10.359Z,2.97
2023-05-13T13:45:37.038Z,2.30
2023-05-13T13:48:04.113Z,2.97
2023-05-13T13:50:31.070Z,2.53
2023-05-13T13:52:58.004Z,2.10
2023-05-13T13:55:24.732Z,2.75
2023-05-13T13:57:52.175Z,2.78
2023-05-13T14:00:19.464Z,2.42
2023-05-13T14:02:46.802Z,2.47
2023-05-13T14:05:14.676Z,2.10
2023-05-13T14:07:41.738Z,2.30
2023-05-13T14:10:09.819Z,2.40
2023-05-13T14:12:39.609Z,1.90
2023-05-13T14:15:07.086Z,3.50
2023-05-13T14:17:34.210Z,2.33
2023-05-13T14:20:01.248Z,2.03
2023-05-13T14:22:28.162Z,2.25
2023-05-13T14:24:55.289Z,2.17
2023-05-13T14:27:24.558Z,2.20
2023-05-13T14:29:53.181Z,2.30
2023-05-13T14:32:19.872Z,2.35
2023-05-13T14:34:46.582Z,2.08
2023-05-13T14:37:13.264Z,2.65
2023-05-13T14:39:39.913Z,2.50
2023-05-13T14:42:06.867Z,2.13
2023-05-13T14:44:33.970Z,1.70
2023-05-13T14:47:01.388Z,2.10
2023-05-13T14:49:28.674Z,2.40
2023-05-13T14:51:55.703Z,2.35
2023-05-13T14:54:22.573Z,2.05
2023-05-13T14:56:49.429Z,2.33
2023-05-13T14:59:16.125Z,2.20
2023-05-13T15:01:42.882Z,2.03
2023-05-13T15:04:09.778Z,2.20
2023-05-13T15:06:37.723Z,2.72
2023-05-13T15:09:05.960Z,2.10
2023-05-13T15:11:33.296Z,2.15
2023-05-13T15:14:00.019Z,2.38
2023-05-13T15:16:26.897Z,1.98
2023-05-13T15:18:53.940Z,2.00
2023-05-13T15:21:20.774Z,1.90
2023-05-13T15:23:47.464Z,2.17
2023-05-13T15:26:14.407Z,2.33
2023-05-13T15:28:41.272Z,2.72
2023-05-13T15:31:08.121Z,2.20
2023-05-13T15:33:37.547Z,2.50
2023-05-13T15:36:05.851Z,2.00
2023-05-13T15:38:32.676Z,2.28
2023-05-13T15:40:59.412Z,2.40
2023-05-13T15:43:26.660Z,2.20
2023-05-13T15:45:54.098Z,2.38
2023-05-13T15:48:21.460Z,3.00
2023-05-13T15:50:48.476Z,2.17
2023-05-13T15:53:15.363Z,2.20
2023-05-13T15:55:42.016Z,2.72
2023-05-13T15:58:08.829Z,2.08
2023-05-13T16:00:35.438Z,2.80
2023-05-13T16:03:02.373Z,2.55
2023-05-13T16:05:29.080Z,2.30
2023-05-13T16:07:57.289Z,2.97
2023-05-13T16:10:24.591Z,2.10
2023-05-13T16:12:51.650Z,2.42
2023-05-13T16:15:18.393Z,2.28
2023-05-13T16:17:45.115Z,2.60
2023-05-13T16:20:12.332Z,2.08
2023-05-13T16:22:39.451Z,2.60
2023-05-13T16:25:08.215Z,2.25
2023-05-13T16:27:35.949Z,2.30
2023-05-13T16:30:03.651Z,2.50
2023-05-13T16:32:30.522Z,2.03
2023-05-13T16:35:02.721Z,2.25
2023-05-13T16:37:38.043Z,2.10
2023-05-13T16:40:05.988Z,2.25
2023-05-13T16:42:32.630Z,2.75
2023-05-13T16:44:59.257Z,2.38
2023-05-13T16:47:25.957Z,2.20
2023-05-13T16:49:52.714Z,2.60
2023-05-13T16:52:19.377Z,2.33
2023-05-13T16:54:46.115Z,2.50
2023-05-13T16:57:14.916Z,3.00
2023-05-13T16:59:41.651Z,2.50
2023-05-13T17:02:08.796Z,2.28
2023-05-13T17:04:36.054Z,2.35
2023-05-13T17:07:03.099Z,2.42
2023-05-13T17:09:30.442Z,2.42
2023-05-13T17:11:57.192Z,3.08
2023-05-13T17:14:23.839Z,2.38
2023-05-13T17:16:50.970Z,2.10
2023-05-13T17:19:17.895Z,2.33
2023-05-13T17:21:45.153Z,2.00
2023-05-13T17:24:12.153Z,2.20
2023-05-13T17:26:39.237Z,2.22
2023-05-13T17:29:06.321Z,2.13
2023-05-13T17:31:33.758Z,2.53
2023-05-13T17:34:00.680Z,2.10
2023-05-13T17:36:27.769Z,2.28
2023-05-13T17:38:54.595Z,2.33
2023-05-13T17:41:21.854Z,2.10
2023-05-13T17:43:48.477Z,2.17
2023-05-13T17:46:15.203Z,1.83
2023-05-13T17:48:42.403Z,2.30
2023-05-13T17:51:09.348Z,2.25
2023-05-13T17:53:36.174Z,2.17
2023-05-13T17:56:04.888Z,2.03
2023-05-13T17:58:38.524Z,2.28
2023-05-13T18:01:05.856Z,2.33
2023-05-13T18:03:40.979Z,2.10
2023-05-13T18:06:17.815Z,2.67
2023-05-13T18:08:45.200Z,2.17
2023-05-13T18:11:12.213Z,2.10
2023-05-13T18:13:48.996Z,2.58
2023-05-13T18:16:19.671Z,2.42
2023-05-13T18:18:49.037Z,2.17
2023-05-13T18:21:18.094Z,2.65
2023-05-13T18:23:46.680Z,3.08
2023-05-13T18:26:14.151Z,2.97
2023-05-13T18:28:55.107Z,3.72
2023-05-13T18:31:29.697Z,3.85
2023-05-13T18:33:58.721Z,3.88
2023-05-13T18:36:26.227Z,4.03
2023-05-13T18:38:59.396Z,4.03
2023-05-13T18:41:26.414Z,4.30
2023-05-13T18:43:53.258Z,4.15
2023-05-13T18:46:20.543Z,3.72
2023-05-13T18:48:51.237Z,4.35
2023-05-13T18:56:19.325Z,4.25
2023-05-13T18:58:46.910Z,3.83
2023-05-13T19:01:17.581Z,4.10
2023-05-13T19:03:51.103Z,4.40
2023-05-13T19:06:21.103Z,4.95
2023-05-13T19:08:48.499Z,4.15
2023-05-13T19:11:15.745Z,3.95
2023-05-13T19:13:47.626Z,3.10
2023-05-13T19:16:15.675Z,2.30
2023-05-13T19:18:43.250Z,2.53
2023-05-13T19:21:10.050Z,2.53
2023-05-13T19:23:38.362Z,2.40
2023-05-13T19:26:08.019Z,3.17
2023-05-13T19:28:35.534Z,2.28
2023-05-13T19:31:08.100Z,3.00
2023-05-13T19:34:29.249Z,2.72
2023-05-13T19:36:56.476Z,2.67
2023-05-13T19:39:34.124Z,2.95
2023-05-13T19:42:07.217Z,2.45
2023-05-13T19:44:41.463Z,2.30
2023-05-13T19:47:08.984Z,2.42
2023-05-13T19:49:45.828Z,2.70
2023-05-13T19:52:27.336Z,2.75
2023-05-13T19:54:59.964Z,2.65
2023-05-13T19:57:29.954Z,2.88
2023-05-13T19:59:57.252Z,2.70
2023-05-13T20:02:24.073Z,2.88
2023-05-13T20:04:51.051Z,3.20
2023-05-13T20:07:18.100Z,2.85
2023-05-13T20:09:45.152Z,2.83
2023-05-13T20:12:11.953Z,2.80
2023-05-13T20:14:52.405Z,2.70
2023-05-13T20:17:23.830Z,2.90
2023-05-13T20:19:51.835Z,2.20
2023-05-13T20:22:19.549Z,3.38
2023-05-13T20:24:47.972Z,2.97
2023-05-13T20:27:16.139Z,3.10
2023-05-13T20:29:44.561Z,3.35
2023-05-13T20:32:11.767Z,3.13
2023-05-13T20:34:38.552Z,3.40
2023-05-13T20:37:05.908Z,3.38
2023-05-13T20:39:32.575Z,4.25
2023-05-13T20:41:59.319Z,3.92
2023-05-13T20:44:25.981Z,4.18
2023-05-13T20:46:52.710Z,3.85
2023-05-13T20:49:19.422Z,4.18
2023-05-13T20:51:47.998Z,3.92
2023-05-13T20:54:15.473Z,4.72
2023-05-13T20:56:42.172Z,5.15
2023-05-13T20:59:09.115Z,4.70
2023-05-13T21:01:36.022Z,4.47
2023-05-13T21:04:06.148Z,4.95
2023-05-13T21:06:33.556Z,5.43
2023-05-13T21:09:00.231Z,5.95
2023-05-13T21:11:27.241Z,6.05
2023-05-13T21:13:53.934Z,5.97
2023-05-13T21:16:20.759Z,5.88
2023-05-13T21:18:47.603Z,6.57
2023-05-13T21:21:14.413Z,6.47
2023-05-13T21:23:45.852Z,6.05
2023-05-13T21:26:12.815Z,6.72
2023-05-13T21:28:40.395Z,6.95
2023-05-13T21:31:07.244Z,6.53
2023-05-13T21:33:34.066Z,6.10
2023-05-13T21:36:00.747Z,6.55
2023-05-13T21:38:27.381Z,6.03
2023-05-13T21:40:54.346Z,6.47
2023-05-13T21:43:20.973Z,7.38
2023-05-13T21:45:48.445Z,6.90
2023-05-13T21:48:15.393Z,7.15
2023-05-13T21:50:42.433Z,7.28
2023-05-13T21:53:09.169Z,7.45
2023-05-13T21:55:35.861Z,7.53
2023-05-13T21:58:03.118Z,7.85
2023-05-13T22:00:29.840Z,8.02
2023-05-13T22:03:00.576Z,8.88
2023-05-13T22:05:27.616Z,9.18
2023-05-13T22:07:54.212Z,8.85
2023-05-13T22:10:20.990Z,8.98
2023-05-13T22:12:48.192Z,8.98
2023-05-13T22:15:16.289Z,9.45
2023-05-13T22:17:43.335Z,9.00
2023-05-13T22:20:10.570Z,9.32
2023-05-13T22:22:37.153Z,10.23
2023-05-13T22:25:04.061Z,8.73
2023-05-13T22:27:30.956Z,9.15
2023-05-13T22:29:57.520Z,9.85
2023-05-13T22:32:24.714Z,9.95
2023-05-13T22:34:51.963Z,10.05
2023-05-13T22:37:18.675Z,9.27
2023-05-13T22:39:45.275Z,10.65
2023-05-13T22:42:11.906Z,10.73
2023-05-13T22:44:39.037Z,10.27
2023-05-13T22:47:06.368Z,9.95
2023-05-13T22:49:32.933Z,10.95
2023-05-13T22:51:59.483Z,11.23
2023-05-13T22:54:26.191Z,11.40
2023-05-13T22:56:52.967Z,12.02
2023-05-13T22:59:19.544Z,11.73
2023-05-13T23:01:46.244Z,11.40
2023-05-13T23:04:13.014Z,11.35
2023-05-13T23:06:39.704Z,11.15
2023-05-13T23:09:07.642Z,10.82
2023-05-13T23:11:36.312Z,10.75
2023-05-13T23:14:02.911Z,12.07
2023-05-13T23:16:29.690Z,12.55
2023-05-13T23:18:56.365Z,12.35
2023-05-13T23:21:22.980Z,12.38
2023-05-13T23:23:50.537Z,13.55
2023-05-13T23:26:17.199Z,12.77
2023-05-13T23:28:43.857Z,12.27
2023-05-13T23:31:10.660Z,14.00
2023-05-13T23:33:37.316Z,15.35
2023-05-13T23:36:04.170Z,14.45
2023-05-13T23:38:30.671Z,15.95
2023-05-13T23:40:57.425Z,15.88
2023-05-13T23:43:23.989Z,17.15
2023-05-13T23:45:50.625Z,16.58
2023-05-13T23:48:17.336Z,16.83
2023-05-13T23:50:44.413Z,17.40
2023-05-13T23:53:11.066Z,16.88
2023-05-13T23:55:37.678Z,17.15
2023-05-13T23:58:04.368Z,16.67
